sensor_id;sensor_type;location;lat;lon;timestamp;temperature;humidity
2571;DHT22;1295;51.130;6.732;2023-01-19T00:00:04;2.30;99.90
2571;DHT22;1295;51.130;6.732;2023-01-19T00:02:30;2.30;99.90
2571;DHT22;1295;51.130;6.732;2023-01-19T00:04:56;2.20;99.90
2571;DHT22;1295;51.130;6.732;2023-01-19T00:07:22;2.20;99.90
2571;DHT22;1295;51.130;6.732;2023-01-19T00:09:48;2.30;99.90
2571;DHT22;1295;51.130;6.732;2023-01-19T00:12:13;2.20;99.90
2571;DHT22;1295;51.130;6.732;2023-01-19T00:14:39;2.20;99.90
2571;DHT22;1295;51.130;6.732;2023-01-19T00:17:05;2.20;99.90
2571;DHT22;1295;51.130;6.732;2023-01-19T00:19:31;2.20;99.90
2571;DHT22;1295;51.130;6.732;2023-01-19T00:21:56;2.20;99.90
2571;DHT22;1295;51.130;6.732;2023-01-19T00:24:22;2.10;99.90
2571;DHT22;1295;51.130;6.732;2023-01-19T00:26:48;2.10;99.90
2571;DHT22;1295;51.130;6.732;2023-01-19T00:29:13;2.00;99.90
2571;DHT22;1295;51.130;6.732;2023-01-19T00:31:39;2.00;99.90
2571;DHT22;1295;51.130;6.732;2023-01-19T00:34:05;2.30;99.90
2571;DHT22;1295;51.130;6.732;2023-01-19T00:36:30;2.40;99.90
2571;DHT22;1295;51.130;6.732;2023-01-19T00:38:56;2.20;99.90
2571;DHT22;1295;51.130;6.732;2023-01-19T00:41:22;2.10;99.90
2571;DHT22;1295;51.130;6.732;2023-01-19T00:43:47;1.80;99.90
2571;DHT22;1295;51.130;6.732;2023-01-19T00:46:13;1.80;99.90
2571;DHT22;1295;51.130;6.732;2023-01-19T00:48:38;1.90;99.90
2571;DHT22;1295;51.130;6.732;2023-01-19T00:51:04;2.20;99.90
2571;DHT22;1295;51.130;6.732;2023-01-19T00:53:30;2.20;99.90
2571;DHT22;1295;51.130;6.732;2023-01-19T00:55:55;2.40;99.90
2571;DHT22;1295;51.130;6.732;2023-01-19T00:58:21;2.20;99.90
2571;DHT22;1295;51.130;6.732;2023-01-19T01:00:47;2.00;99.90
2571;DHT22;1295;51.130;6.732;2023-01-19T01:03:12;2.00;99.90
2571;DHT22;1295;51.130;6.732;2023-01-19T01:05:39;2.20;99.90
2571;DHT22;1295;51.130;6.732;2023-01-19T01:08:04;2.20;99.90
2571;DHT22;1295;51.130;6.732;2023-01-19T01:10:30;2.10;99.90
2571;DHT22;1295;51.130;6.732;2023-01-19T01:12:55;2.20;99.90
2571;DHT22;1295;51.130;6.732;2023-01-19T01:15:21;2.30;99.90
2571;DHT22;1295;51.130;6.732;2023-01-19T01:17:47;2.30;99.90
2571;DHT22;1295;51.130;6.732;2023-01-19T01:20:13;2.20;99.90
2571;DHT22;1295;51.130;6.732;2023-01-19T01:22:38;2.30;99.90
2571;DHT22;1295;51.130;6.732;2023-01-19T01:25:05;2.20;99.90
2571;DHT22;1295;51.130;6.732;2023-01-19T01:27:31;2.30;99.90
2571;DHT22;1295;51.130;6.732;2023-01-19T01:29:57;2.30;99.90
2571;DHT22;1295;51.130;6.732;2023-01-19T01:32:22;2.30;99.90
2571;DHT22;1295;51.130;6.732;2023-01-19T01:34:48;1.90;99.90
2571;DHT22;1295;51.130;6.732;2023-01-19T01:37:14;1.90;99.90
2571;DHT22;1295;51.130;6.732;2023-01-19T01:39:39;1.90;99.90
2571;DHT22;1295;51.130;6.732;2023-01-19T01:42:13;1.70;99.90
2571;DHT22;1295;51.130;6.732;2023-01-19T01:44:56;1.60;99.90
2571;DHT22;1295;51.130;6.732;2023-01-19T01:47:27;1.70;99.90
2571;DHT22;1295;51.130;6.732;2023-01-19T01:49:52;1.70;99.90
2571;DHT22;1295;51.130;6.732;2023-01-19T01:52:17;1.70;99.90
2571;DHT22;1295;51.130;6.732;2023-01-19T01:54:43;1.70;99.90
2571;DHT22;1295;51.130;6.732;2023-01-19T01:57:10;1.70;99.90
2571;DHT22;1295;51.130;6.732;2023-01-19T01:59:36;1.70;99.90
2571;DHT22;1295;51.130;6.732;2023-01-19T02:02:02;1.80;99.90
2571;DHT22;1295;51.130;6.732;2023-01-19T02:04:33;1.80;99.90
2571;DHT22;1295;51.130;6.732;2023-01-19T02:06:58;1.80;99.90
2571;DHT22;1295;51.130;6.732;2023-01-19T02:09:31;1.90;99.90
2571;DHT22;1295;51.130;6.732;2023-01-19T02:12:03;1.90;99.90
2571;DHT22;1295;51.130;6.732;2023-01-19T02:14:35;2.10;99.90
2571;DHT22;1295;51.130;6.732;2023-01-19T02:17:01;2.20;99.90
2571;DHT22;1295;51.130;6.732;2023-01-19T02:19:30;2.20;99.90
2571;DHT22;1295;51.130;6.732;2023-01-19T02:22:08;2.20;99.90
2571;DHT22;1295;51.130;6.732;2023-01-19T02:24:31;2.10;99.90
2571;DHT22;1295;51.130;6.732;2023-01-19T02:26:57;2.20;99.90
2571;DHT22;1295;51.130;6.732;2023-01-19T02:29:23;2.10;99.90
2571;DHT22;1295;51.130;6.732;2023-01-19T02:31:48;2.20;99.90
2571;DHT22;1295;51.130;6.732;2023-01-19T02:34:14;2.10;99.90
2571;DHT22;1295;51.130;6.732;2023-01-19T02:36:43;2.10;99.90
2571;DHT22;1295;51.130;6.732;2023-01-19T02:39:08;2.10;99.90
2571;DHT22;1295;51.130;6.732;2023-01-19T02:41:36;2.00;99.90
2571;DHT22;1295;51.130;6.732;2023-01-19T02:43:59;2.00;99.90
2571;DHT22;1295;51.130;6.732;2023-01-19T02:46:24;1.90;99.90
2571;DHT22;1295;51.130;6.732;2023-01-19T02:48:50;1.90;99.90
2571;DHT22;1295;51.130;6.732;2023-01-19T02:51:17;2.10;99.90
2571;DHT22;1295;51.130;6.732;2023-01-19T02:53:56;2.10;99.90
2571;DHT22;1295;51.130;6.732;2023-01-19T02:56:29;2.00;99.90
2571;DHT22;1295;51.130;6.732;2023-01-19T02:59:05;2.10;99.90
2571;DHT22;1295;51.130;6.732;2023-01-19T03:01:51;2.10;99.90
2571;DHT22;1295;51.130;6.732;2023-01-19T03:04:23;2.00;99.90
2571;DHT22;1295;51.130;6.732;2023-01-19T03:06:49;1.80;99.90
2571;DHT22;1295;51.130;6.732;2023-01-19T03:09:27;2.00;99.90
2571;DHT22;1295;51.130;6.732;2023-01-19T03:11:58;2.00;99.90
2571;DHT22;1295;51.130;6.732;2023-01-19T03:14:20;1.90;99.90
2571;DHT22;1295;51.130;6.732;2023-01-19T03:16:46;1.90;99.90
2571;DHT22;1295;51.130;6.732;2023-01-19T03:19:23;2.10;99.90
2571;DHT22;1295;51.130;6.732;2023-01-19T03:21:51;2.30;99.90
2571;DHT22;1295;51.130;6.732;2023-01-19T03:24:16;2.20;99.90
2571;DHT22;1295;51.130;6.732;2023-01-19T03:26:42;2.20;99.90
2571;DHT22;1295;51.130;6.732;2023-01-19T03:29:06;2.10;99.90
2571;DHT22;1295;51.130;6.732;2023-01-19T03:31:32;2.20;99.90
2571;DHT22;1295;51.130;6.732;2023-01-19T03:34:00;2.20;99.90
2571;DHT22;1295;51.130;6.732;2023-01-19T03:36:26;2.00;99.90
2571;DHT22;1295;51.130;6.732;2023-01-19T03:38:51;2.10;99.90
2571;DHT22;1295;51.130;6.732;2023-01-19T03:41:16;2.20;99.90
2571;DHT22;1295;51.130;6.732;2023-01-19T03:43:42;2.00;99.90
2571;DHT22;1295;51.130;6.732;2023-01-19T03:46:07;2.10;99.90
2571;DHT22;1295;51.130;6.732;2023-01-19T03:48:33;1.90;99.90
2571;DHT22;1295;51.130;6.732;2023-01-19T03:51:02;1.90;99.90
2571;DHT22;1295;51.130;6.732;2023-01-19T03:53:27;1.90;99.90
2571;DHT22;1295;51.130;6.732;2023-01-19T03:55:52;2.30;99.90
2571;DHT22;1295;51.130;6.732;2023-01-19T03:58:18;2.20;99.90
2571;DHT22;1295;51.130;6.732;2023-01-19T04:00:43;2.10;99.90
2571;DHT22;1295;51.130;6.732;2023-01-19T04:03:11;2.20;99.90
2571;DHT22;1295;51.130;6.732;2023-01-19T04:05:35;2.30;99.90
2571;DHT22;1295;51.130;6.732;2023-01-19T04:08:01;2.30;99.90
2571;DHT22;1295;51.130;6.732;2023-01-19T04:10:27;2.30;99.90
2571;DHT22;1295;51.130;6.732;2023-01-19T04:12:57;2.40;99.90
2571;DHT22;1295;51.130;6.732;2023-01-19T04:15:22;2.30;99.90
2571;DHT22;1295;51.130;6.732;2023-01-19T04:17:48;2.30;99.90
2571;DHT22;1295;51.130;6.732;2023-01-19T04:20:14;2.30;99.90
2571;DHT22;1295;51.130;6.732;2023-01-19T04:22:39;2.30;99.90
2571;DHT22;1295;51.130;6.732;2023-01-19T04:25:06;2.30;99.90
2571;DHT22;1295;51.130;6.732;2023-01-19T04:27:33;2.30;99.90
2571;DHT22;1295;51.130;6.732;2023-01-19T04:29:58;2.30;99.90
2571;DHT22;1295;51.130;6.732;2023-01-19T04:32:24;2.40;99.90
2571;DHT22;1295;51.130;6.732;2023-01-19T04:34:49;2.40;99.90
2571;DHT22;1295;51.130;6.732;2023-01-19T04:37:15;2.40;99.90
2571;DHT22;1295;51.130;6.732;2023-01-19T04:39:41;2.30;99.90
2571;DHT22;1295;51.130;6.732;2023-01-19T04:42:06;2.20;99.90
2571;DHT22;1295;51.130;6.732;2023-01-19T04:44:32;2.20;99.90
2571;DHT22;1295;51.130;6.732;2023-01-19T04:46:57;2.20;99.90
2571;DHT22;1295;51.130;6.732;2023-01-19T04:49:23;2.20;99.90
2571;DHT22;1295;51.130;6.732;2023-01-19T04:51:51;2.30;99.90
2571;DHT22;1295;51.130;6.732;2023-01-19T04:54:15;2.40;99.90
2571;DHT22;1295;51.130;6.732;2023-01-19T04:56:41;2.30;99.90
2571;DHT22;1295;51.130;6.732;2023-01-19T04:59:06;2.40;99.90
2571;DHT22;1295;51.130;6.732;2023-01-19T05:01:32;2.30;99.90
2571;DHT22;1295;51.130;6.732;2023-01-19T05:03:58;2.50;99.90
2571;DHT22;1295;51.130;6.732;2023-01-19T05:06:23;2.20;99.90
2571;DHT22;1295;51.130;6.732;2023-01-19T05:08:49;2.20;99.90
2571;DHT22;1295;51.130;6.732;2023-01-19T05:11:15;2.10;99.90
2571;DHT22;1295;51.130;6.732;2023-01-19T05:13:40;2.10;99.90
2571;DHT22;1295;51.130;6.732;2023-01-19T05:16:07;2.10;99.90
2571;DHT22;1295;51.130;6.732;2023-01-19T05:18:32;2.10;99.90
2571;DHT22;1295;51.130;6.732;2023-01-19T05:20:58;2.10;99.90
2571;DHT22;1295;51.130;6.732;2023-01-19T05:23:23;2.20;99.90
2571;DHT22;1295;51.130;6.732;2023-01-19T05:25:49;2.20;99.90
2571;DHT22;1295;51.130;6.732;2023-01-19T05:28:15;2.00;99.90
2571;DHT22;1295;51.130;6.732;2023-01-19T05:30:40;2.10;99.90
2571;DHT22;1295;51.130;6.732;2023-01-19T05:33:07;2.00;99.90
2571;DHT22;1295;51.130;6.732;2023-01-19T05:35:32;2.00;99.90
2571;DHT22;1295;51.130;6.732;2023-01-19T05:37:58;2.00;99.90
2571;DHT22;1295;51.130;6.732;2023-01-19T05:40:24;2.10;99.90
2571;DHT22;1295;51.130;6.732;2023-01-19T05:42:49;2.00;99.90
2571;DHT22;1295;51.130;6.732;2023-01-19T05:45:15;1.90;99.90
2571;DHT22;1295;51.130;6.732;2023-01-19T05:47:40;1.80;99.90
2571;DHT22;1295;51.130;6.732;2023-01-19T05:50:07;1.90;99.90
2571;DHT22;1295;51.130;6.732;2023-01-19T05:52:33;1.80;99.90
2571;DHT22;1295;51.130;6.732;2023-01-19T05:54:59;1.70;99.90
2571;DHT22;1295;51.130;6.732;2023-01-19T05:57:25;2.00;99.90
2571;DHT22;1295;51.130;6.732;2023-01-19T05:59:50;2.20;99.90
2571;DHT22;1295;51.130;6.732;2023-01-19T06:02:16;2.20;99.90
2571;DHT22;1295;51.130;6.732;2023-01-19T06:04:41;2.00;99.90
2571;DHT22;1295;51.130;6.732;2023-01-19T06:07:07;1.70;99.90
2571;DHT22;1295;51.130;6.732;2023-01-19T06:09:33;1.90;99.90
2571;DHT22;1295;51.130;6.732;2023-01-19T06:11:58;1.70;99.90
2571;DHT22;1295;51.130;6.732;2023-01-19T06:14:24;1.70;99.90
2571;DHT22;1295;51.130;6.732;2023-01-19T06:16:49;1.90;99.90
2571;DHT22;1295;51.130;6.732;2023-01-19T06:19:15;2.00;99.90
2571;DHT22;1295;51.130;6.732;2023-01-19T06:21:41;1.80;99.90
2571;DHT22;1295;51.130;6.732;2023-01-19T06:24:08;1.80;99.90
2571;DHT22;1295;51.130;6.732;2023-01-19T06:26:33;1.80;99.90
2571;DHT22;1295;51.130;6.732;2023-01-19T06:28:58;1.80;99.90
2571;DHT22;1295;51.130;6.732;2023-01-19T06:31:24;1.80;99.90
2571;DHT22;1295;51.130;6.732;2023-01-19T06:33:50;1.90;99.90
2571;DHT22;1295;51.130;6.732;2023-01-19T06:36:15;1.90;99.90
2571;DHT22;1295;51.130;6.732;2023-01-19T06:38:41;1.60;99.90
2571;DHT22;1295;51.130;6.732;2023-01-19T06:41:07;1.90;99.90
2571;DHT22;1295;51.130;6.732;2023-01-19T06:43:32;1.90;99.90
2571;DHT22;1295;51.130;6.732;2023-01-19T06:45:58;1.70;99.90
2571;DHT22;1295;51.130;6.732;2023-01-19T06:48:24;1.60;99.90
2571;DHT22;1295;51.130;6.732;2023-01-19T06:50:49;2.10;99.90
2571;DHT22;1295;51.130;6.732;2023-01-19T06:53:15;1.90;99.90
2571;DHT22;1295;51.130;6.732;2023-01-19T06:55:42;2.10;99.90
2571;DHT22;1295;51.130;6.732;2023-01-19T06:58:09;2.10;99.90
2571;DHT22;1295;51.130;6.732;2023-01-19T07:00:34;2.00;99.90
2571;DHT22;1295;51.130;6.732;2023-01-19T07:03:00;2.10;99.90
2571;DHT22;1295;51.130;6.732;2023-01-19T07:05:26;2.00;99.90
2571;DHT22;1295;51.130;6.732;2023-01-19T07:07:53;1.90;99.90
2571;DHT22;1295;51.130;6.732;2023-01-19T07:10:18;1.90;99.90
2571;DHT22;1295;51.130;6.732;2023-01-19T07:12:43;1.70;99.90
2571;DHT22;1295;51.130;6.732;2023-01-19T07:15:09;1.80;99.90
2571;DHT22;1295;51.130;6.732;2023-01-19T07:17:34;1.90;99.90
2571;DHT22;1295;51.130;6.732;2023-01-19T07:20:00;1.90;99.90
2571;DHT22;1295;51.130;6.732;2023-01-19T07:22:26;1.90;99.90
2571;DHT22;1295;51.130;6.732;2023-01-19T07:24:52;1.90;99.90
2571;DHT22;1295;51.130;6.732;2023-01-19T07:27:17;1.90;99.90
2571;DHT22;1295;51.130;6.732;2023-01-19T07:29:44;2.00;99.90
2571;DHT22;1295;51.130;6.732;2023-01-19T07:32:09;1.90;99.90
2571;DHT22;1295;51.130;6.732;2023-01-19T07:34:35;1.90;99.90
2571;DHT22;1295;51.130;6.732;2023-01-19T07:37:01;1.90;99.90
2571;DHT22;1295;51.130;6.732;2023-01-19T07:39:26;1.90;99.90
2571;DHT22;1295;51.130;6.732;2023-01-19T07:41:52;2.00;99.90
2571;DHT22;1295;51.130;6.732;2023-01-19T07:44:17;2.10;99.90
2571;DHT22;1295;51.130;6.732;2023-01-19T07:46:43;2.00;99.90
2571;DHT22;1295;51.130;6.732;2023-01-19T07:49:09;2.00;99.90
2571;DHT22;1295;51.130;6.732;2023-01-19T07:51:35;1.80;99.90
2571;DHT22;1295;51.130;6.732;2023-01-19T07:54:01;1.80;99.90
2571;DHT22;1295;51.130;6.732;2023-01-19T07:56:26;2.00;99.90
2571;DHT22;1295;51.130;6.732;2023-01-19T07:58:53;1.90;99.90
2571;DHT22;1295;51.130;6.732;2023-01-19T08:01:18;1.90;99.90
2571;DHT22;1295;51.130;6.732;2023-01-19T08:03:46;1.80;99.90
2571;DHT22;1295;51.130;6.732;2023-01-19T08:06:14;1.90;99.90
2571;DHT22;1295;51.130;6.732;2023-01-19T08:08:36;1.70;99.90
2571;DHT22;1295;51.130;6.732;2023-01-19T08:11:02;1.70;99.90
2571;DHT22;1295;51.130;6.732;2023-01-19T08:13:28;1.80;99.90
2571;DHT22;1295;51.130;6.732;2023-01-19T08:15:54;1.80;99.90
2571;DHT22;1295;51.130;6.732;2023-01-19T08:18:19;2.00;99.90
2571;DHT22;1295;51.130;6.732;2023-01-19T08:20:45;2.00;99.90
2571;DHT22;1295;51.130;6.732;2023-01-19T08:23:10;1.90;99.90
2571;DHT22;1295;51.130;6.732;2023-01-19T08:25:39;2.00;99.90
2571;DHT22;1295;51.130;6.732;2023-01-19T08:28:04;1.90;99.90
2571;DHT22;1295;51.130;6.732;2023-01-19T08:30:31;1.80;99.90
2571;DHT22;1295;51.130;6.732;2023-01-19T08:32:56;1.80;99.90
2571;DHT22;1295;51.130;6.732;2023-01-19T08:35:22;2.00;99.90
2571;DHT22;1295;51.130;6.732;2023-01-19T08:37:47;2.00;99.90
2571;DHT22;1295;51.130;6.732;2023-01-19T08:40:13;2.00;99.90
2571;DHT22;1295;51.130;6.732;2023-01-19T08:42:39;1.90;99.90
2571;DHT22;1295;51.130;6.732;2023-01-19T08:45:06;1.90;99.90
2571;DHT22;1295;51.130;6.732;2023-01-19T08:47:32;1.90;99.90
2571;DHT22;1295;51.130;6.732;2023-01-19T08:49:58;2.00;99.90
2571;DHT22;1295;51.130;6.732;2023-01-19T08:52:23;2.00;99.90
2571;DHT22;1295;51.130;6.732;2023-01-19T08:54:49;1.80;99.90
2571;DHT22;1295;51.130;6.732;2023-01-19T08:57:19;2.00;99.90
2571;DHT22;1295;51.130;6.732;2023-01-19T08:59:55;2.10;99.90
2571;DHT22;1295;51.130;6.732;2023-01-19T09:02:21;2.00;99.90
2571;DHT22;1295;51.130;6.732;2023-01-19T09:04:46;2.10;99.90
2571;DHT22;1295;51.130;6.732;2023-01-19T09:07:12;2.00;99.90
2571;DHT22;1295;51.130;6.732;2023-01-19T09:09:38;2.00;99.90
2571;DHT22;1295;51.130;6.732;2023-01-19T09:12:04;2.00;99.90
2571;DHT22;1295;51.130;6.732;2023-01-19T09:14:30;2.10;99.90
2571;DHT22;1295;51.130;6.732;2023-01-19T09:16:55;2.20;99.90
2571;DHT22;1295;51.130;6.732;2023-01-19T09:19:21;2.10;99.90
2571;DHT22;1295;51.130;6.732;2023-01-19T09:21:46;2.10;99.90
2571;DHT22;1295;51.130;6.732;2023-01-19T09:24:12;1.90;99.90
2571;DHT22;1295;51.130;6.732;2023-01-19T09:26:38;2.10;99.90
2571;DHT22;1295;51.130;6.732;2023-01-19T09:29:03;2.10;99.90
2571;DHT22;1295;51.130;6.732;2023-01-19T09:31:29;2.10;99.90
2571;DHT22;1295;51.130;6.732;2023-01-19T09:33:55;2.00;99.90
2571;DHT22;1295;51.130;6.732;2023-01-19T09:36:20;2.10;99.90
2571;DHT22;1295;51.130;6.732;2023-01-19T09:38:46;2.10;99.90
2571;DHT22;1295;51.130;6.732;2023-01-19T09:41:14;2.40;99.90
2571;DHT22;1295;51.130;6.732;2023-01-19T09:43:40;2.30;99.90
2571;DHT22;1295;51.130;6.732;2023-01-19T09:46:09;2.10;99.90
2571;DHT22;1295;51.130;6.732;2023-01-19T09:48:50;2.20;99.90
2571;DHT22;1295;51.130;6.732;2023-01-19T09:51:17;2.30;99.90
2571;DHT22;1295;51.130;6.732;2023-01-19T09:53:47;2.20;99.90
2571;DHT22;1295;51.130;6.732;2023-01-19T09:56:11;2.20;99.90
2571;DHT22;1295;51.130;6.732;2023-01-19T09:58:35;2.10;99.90
2571;DHT22;1295;51.130;6.732;2023-01-19T10:01:05;2.20;99.90
2571;DHT22;1295;51.130;6.732;2023-01-19T10:03:27;2.20;99.90
2571;DHT22;1295;51.130;6.732;2023-01-19T10:06:00;2.10;99.90
2571;DHT22;1295;51.130;6.732;2023-01-19T10:08:42;2.10;99.90
2571;DHT22;1295;51.130;6.732;2023-01-19T10:11:11;2.10;99.90
2571;DHT22;1295;51.130;6.732;2023-01-19T10:13:38;2.10;99.90
2571;DHT22;1295;51.130;6.732;2023-01-19T10:18:48;2.30;99.90
2571;DHT22;1295;51.130;6.732;2023-01-19T10:21:15;2.20;99.90
2571;DHT22;1295;51.130;6.732;2023-01-19T10:23:49;2.40;99.90
2571;DHT22;1295;51.130;6.732;2023-01-19T10:26:22;2.30;99.90
2571;DHT22;1295;51.130;6.732;2023-01-19T10:28:53;2.20;99.90
2571;DHT22;1295;51.130;6.732;2023-01-19T10:31:17;2.20;99.90
2571;DHT22;1295;51.130;6.732;2023-01-19T10:33:44;2.20;99.90
2571;DHT22;1295;51.130;6.732;2023-01-19T10:36:15;2.20;99.90
2571;DHT22;1295;51.130;6.732;2023-01-19T10:38:40;2.20;99.90
2571;DHT22;1295;51.130;6.732;2023-01-19T10:41:06;2.20;99.90
2571;DHT22;1295;51.130;6.732;2023-01-19T10:43:37;2.30;99.90
2571;DHT22;1295;51.130;6.732;2023-01-19T10:46:05;2.30;99.90
2571;DHT22;1295;51.130;6.732;2023-01-19T10:48:35;2.30;99.90
2571;DHT22;1295;51.130;6.732;2023-01-19T10:51:01;2.40;99.90
2571;DHT22;1295;51.130;6.732;2023-01-19T10:53:25;2.40;99.90
2571;DHT22;1295;51.130;6.732;2023-01-19T10:56:08;2.50;99.90
2571;DHT22;1295;51.130;6.732;2023-01-19T10:58:33;2.50;99.90
2571;DHT22;1295;51.130;6.732;2023-01-19T11:01:11;2.40;99.90
2571;DHT22;1295;51.130;6.732;2023-01-19T11:03:27;2.50;99.90
2571;DHT22;1295;51.130;6.732;2023-01-19T11:05:55;2.50;99.90
2571;DHT22;1295;51.130;6.732;2023-01-19T11:08:22;2.50;99.90
2571;DHT22;1295;51.130;6.732;2023-01-19T11:10:51;2.60;99.90
2571;DHT22;1295;51.130;6.732;2023-01-19T11:13:12;2.70;99.90
2571;DHT22;1295;51.130;6.732;2023-01-19T11:15:40;2.50;99.90
2571;DHT22;1295;51.130;6.732;2023-01-19T11:18:05;2.60;99.90
2571;DHT22;1295;51.130;6.732;2023-01-19T11:20:38;2.50;99.90
2571;DHT22;1295;51.130;6.732;2023-01-19T11:23:04;2.60;99.90
2571;DHT22;1295;51.130;6.732;2023-01-19T11:25:29;2.60;99.90
2571;DHT22;1295;51.130;6.732;2023-01-19T11:27:54;2.50;99.90
2571;DHT22;1295;51.130;6.732;2023-01-19T11:30:21;2.50;99.90
2571;DHT22;1295;51.130;6.732;2023-01-19T11:32:45;2.50;99.90
2571;DHT22;1295;51.130;6.732;2023-01-19T11:37:49;2.50;99.90
2571;DHT22;1295;51.130;6.732;2023-01-19T11:40:15;2.50;99.90
2571;DHT22;1295;51.130;6.732;2023-01-19T11:42:41;2.60;99.90
2571;DHT22;1295;51.130;6.732;2023-01-19T11:45:11;2.50;99.90
2571;DHT22;1295;51.130;6.732;2023-01-19T11:47:40;2.50;99.90
2571;DHT22;1295;51.130;6.732;2023-01-19T11:50:20;2.50;99.90
2571;DHT22;1295;51.130;6.732;2023-01-19T11:52:44;2.50;99.90
2571;DHT22;1295;51.130;6.732;2023-01-19T11:55:37;2.50;99.90
2571;DHT22;1295;51.130;6.732;2023-01-19T11:58:00;2.50;99.90
2571;DHT22;1295;51.130;6.732;2023-01-19T12:01:00;2.50;99.90
2571;DHT22;1295;51.130;6.732;2023-01-19T12:03:12;2.50;99.90
2571;DHT22;1295;51.130;6.732;2023-01-19T12:05:34;2.60;99.90
2571;DHT22;1295;51.130;6.732;2023-01-19T12:07:59;2.60;99.90
2571;DHT22;1295;51.130;6.732;2023-01-19T12:10:27;2.60;99.90
2571;DHT22;1295;51.130;6.732;2023-01-19T12:12:51;2.60;99.90
2571;DHT22;1295;51.130;6.732;2023-01-19T12:15:30;2.70;99.90
2571;DHT22;1295;51.130;6.732;2023-01-19T12:17:56;2.70;99.90
2571;DHT22;1295;51.130;6.732;2023-01-19T12:20:37;2.70;99.90
2571;DHT22;1295;51.130;6.732;2023-01-19T12:23:31;2.70;99.90
2571;DHT22;1295;51.130;6.732;2023-01-19T12:28:57;2.80;99.90
2571;DHT22;1295;51.130;6.732;2023-01-19T12:31:22;2.90;99.90
2571;DHT22;1295;51.130;6.732;2023-01-19T12:33:48;2.90;99.90
2571;DHT22;1295;51.130;6.732;2023-01-19T12:36:34;2.90;99.90
2571;DHT22;1295;51.130;6.732;2023-01-19T12:39:19;2.90;99.90
2571;DHT22;1295;51.130;6.732;2023-01-19T12:41:44;2.80;99.90
2571;DHT22;1295;51.130;6.732;2023-01-19T12:44:14;2.80;99.90
2571;DHT22;1295;51.130;6.732;2023-01-19T12:46:42;2.80;99.90
2571;DHT22;1295;51.130;6.732;2023-01-19T12:51:41;2.80;99.90
2571;DHT22;1295;51.130;6.732;2023-01-19T12:54:07;2.90;99.90
2571;DHT22;1295;51.130;6.732;2023-01-19T12:56:33;2.90;99.90
2571;DHT22;1295;51.130;6.732;2023-01-19T12:58:58;2.90;99.90
2571;DHT22;1295;51.130;6.732;2023-01-19T13:01:24;2.90;99.90
2571;DHT22;1295;51.130;6.732;2023-01-19T13:04:02;2.90;99.90
2571;DHT22;1295;51.130;6.732;2023-01-19T13:09:19;2.90;99.90
2571;DHT22;1295;51.130;6.732;2023-01-19T13:11:30;2.90;99.90
2571;DHT22;1295;51.130;6.732;2023-01-19T13:16:48;2.90;99.90
2571;DHT22;1295;51.130;6.732;2023-01-19T13:19:14;2.90;99.90
2571;DHT22;1295;51.130;6.732;2023-01-19T13:21:43;2.90;99.90
2571;DHT22;1295;51.130;6.732;2023-01-19T13:24:08;2.80;99.90
2571;DHT22;1295;51.130;6.732;2023-01-19T13:26:38;2.90;99.90
2571;DHT22;1295;51.130;6.732;2023-01-19T13:29:13;2.90;99.90
2571;DHT22;1295;51.130;6.732;2023-01-19T13:31:36;2.90;99.90
2571;DHT22;1295;51.130;6.732;2023-01-19T13:34:01;2.90;99.90
2571;DHT22;1295;51.130;6.732;2023-01-19T13:36:28;2.90;99.90
2571;DHT22;1295;51.130;6.732;2023-01-19T13:38:53;2.90;99.90
2571;DHT22;1295;51.130;6.732;2023-01-19T13:41:20;2.90;99.90
2571;DHT22;1295;51.130;6.732;2023-01-19T13:43:48;3.00;99.90
2571;DHT22;1295;51.130;6.732;2023-01-19T13:46:13;3.00;99.90
2571;DHT22;1295;51.130;6.732;2023-01-19T13:48:39;3.00;99.90
2571;DHT22;1295;51.130;6.732;2023-01-19T13:51:06;3.00;99.90
2571;DHT22;1295;51.130;6.732;2023-01-19T13:53:31;3.00;99.90
2571;DHT22;1295;51.130;6.732;2023-01-19T13:56:11;3.00;99.90
2571;DHT22;1295;51.130;6.732;2023-01-19T13:58:34;3.00;99.90
2571;DHT22;1295;51.130;6.732;2023-01-19T14:00:59;2.90;99.90
2571;DHT22;1295;51.130;6.732;2023-01-19T14:03:25;2.90;99.90
2571;DHT22;1295;51.130;6.732;2023-01-19T14:05:52;2.90;99.90
2571;DHT22;1295;51.130;6.732;2023-01-19T14:08:17;3.00;99.90
2571;DHT22;1295;51.130;6.732;2023-01-19T14:11:00;2.90;99.90
2571;DHT22;1295;51.130;6.732;2023-01-19T14:13:26;2.90;99.90
2571;DHT22;1295;51.130;6.732;2023-01-19T14:15:53;2.90;99.90
2571;DHT22;1295;51.130;6.732;2023-01-19T14:18:28;2.80;99.90
2571;DHT22;1295;51.130;6.732;2023-01-19T14:21:04;2.90;99.90
2571;DHT22;1295;51.130;6.732;2023-01-19T14:23:39;2.80;99.90
2571;DHT22;1295;51.130;6.732;2023-01-19T14:26:03;2.90;99.90
2571;DHT22;1295;51.130;6.732;2023-01-19T14:28:35;2.80;99.90
2571;DHT22;1295;51.130;6.732;2023-01-19T14:31:00;2.80;99.90
2571;DHT22;1295;51.130;6.732;2023-01-19T14:33:39;2.80;99.90
2571;DHT22;1295;51.130;6.732;2023-01-19T14:36:38;2.70;99.90
2571;DHT22;1295;51.130;6.732;2023-01-19T14:38:47;2.80;99.90
2571;DHT22;1295;51.130;6.732;2023-01-19T14:41:21;2.80;99.90
2571;DHT22;1295;51.130;6.732;2023-01-19T14:43:46;2.80;99.90
2571;DHT22;1295;51.130;6.732;2023-01-19T14:46:16;2.80;99.90
2571;DHT22;1295;51.130;6.732;2023-01-19T14:48:44;2.80;99.90
2571;DHT22;1295;51.130;6.732;2023-01-19T14:51:05;2.70;99.90
2571;DHT22;1295;51.130;6.732;2023-01-19T14:53:34;2.70;99.90
2571;DHT22;1295;51.130;6.732;2023-01-19T14:56:00;2.70;99.90
2571;DHT22;1295;51.130;6.732;2023-01-19T14:58:31;2.70;99.90
2571;DHT22;1295;51.130;6.732;2023-01-19T15:00:51;2.60;99.90
2571;DHT22;1295;51.130;6.732;2023-01-19T15:03:17;2.70;99.90
2571;DHT22;1295;51.130;6.732;2023-01-19T15:05:44;2.70;99.90
2571;DHT22;1295;51.130;6.732;2023-01-19T15:08:13;2.70;99.90
2571;DHT22;1295;51.130;6.732;2023-01-19T15:10:38;2.70;99.90
2571;DHT22;1295;51.130;6.732;2023-01-19T15:13:04;2.70;99.90
2571;DHT22;1295;51.130;6.732;2023-01-19T15:15:30;2.60;99.90
2571;DHT22;1295;51.130;6.732;2023-01-19T15:17:56;2.80;99.90
2571;DHT22;1295;51.130;6.732;2023-01-19T15:20:21;2.80;99.90
2571;DHT22;1295;51.130;6.732;2023-01-19T15:22:47;2.80;99.90
2571;DHT22;1295;51.130;6.732;2023-01-19T15:25:14;2.90;99.90
2571;DHT22;1295;51.130;6.732;2023-01-19T15:27:40;2.90;99.90
2571;DHT22;1295;51.130;6.732;2023-01-19T15:30:20;2.90;99.90
2571;DHT22;1295;51.130;6.732;2023-01-19T15:32:45;2.90;99.90
2571;DHT22;1295;51.130;6.732;2023-01-19T15:35:13;2.80;99.90
2571;DHT22;1295;51.130;6.732;2023-01-19T15:37:38;2.80;99.90
2571;DHT22;1295;51.130;6.732;2023-01-19T15:40:05;2.80;99.90
2571;DHT22;1295;51.130;6.732;2023-01-19T15:42:31;2.80;99.90
2571;DHT22;1295;51.130;6.732;2023-01-19T15:44:56;2.80;99.90
2571;DHT22;1295;51.130;6.732;2023-01-19T15:47:22;2.90;99.90
2571;DHT22;1295;51.130;6.732;2023-01-19T15:49:48;3.00;99.90
2571;DHT22;1295;51.130;6.732;2023-01-19T15:52:13;3.00;99.90
2571;DHT22;1295;51.130;6.732;2023-01-19T15:54:39;2.90;99.90
2571;DHT22;1295;51.130;6.732;2023-01-19T15:57:04;2.90;99.90
2571;DHT22;1295;51.130;6.732;2023-01-19T15:59:30;2.80;99.90
2571;DHT22;1295;51.130;6.732;2023-01-19T16:01:56;2.70;99.90
2571;DHT22;1295;51.130;6.732;2023-01-19T16:04:21;2.70;99.90
2571;DHT22;1295;51.130;6.732;2023-01-19T16:06:47;2.70;99.90
2571;DHT22;1295;51.130;6.732;2023-01-19T16:09:13;2.80;99.90
2571;DHT22;1295;51.130;6.732;2023-01-19T16:11:39;2.70;99.90
2571;DHT22;1295;51.130;6.732;2023-01-19T16:14:05;2.70;99.90
2571;DHT22;1295;51.130;6.732;2023-01-19T16:16:31;2.60;99.90
2571;DHT22;1295;51.130;6.732;2023-01-19T16:18:56;2.30;99.90
2571;DHT22;1295;51.130;6.732;2023-01-19T16:21:22;2.50;99.90
2571;DHT22;1295;51.130;6.732;2023-01-19T16:23:48;2.50;99.90
2571;DHT22;1295;51.130;6.732;2023-01-19T16:26:24;2.70;99.90
2571;DHT22;1295;51.130;6.732;2023-01-19T16:28:48;2.90;99.90
2571;DHT22;1295;51.130;6.732;2023-01-19T16:31:14;2.90;99.90